sensor_id;sensor_type;location;lat;lon;timestamp;temperature;humidity
74420;DHT22;62855;50.718;-2.460;2023-08-01T00:00:07;58.10;87.00
74420;DHT22;62855;50.718;-2.460;2023-08-01T00:03:06;58.10;87.00
74420;DHT22;62855;50.718;-2.460;2023-08-01T00:06:06;58.10;87.00
74420;DHT22;62855;50.718;-2.460;2023-08-01T00:09:06;58.10;87.00
74420;DHT22;62855;50.718;-2.460;2023-08-01T00:12:06;58.10;87.00
74420;DHT22;62855;50.718;-2.460;2023-08-01T00:15:07;58.10;87.00
74420;DHT22;62855;50.718;-2.460;2023-08-01T00:18:05;58.10;87.00
74420;DHT22;62855;50.718;-2.460;2023-08-01T00:21:06;58.10;87.00
74420;DHT22;62855;50.718;-2.460;2023-08-01T00:24:06;58.10;87.00
74420;DHT22;62855;50.718;-2.460;2023-08-01T00:27:06;58.10;87.00
74420;DHT22;62855;50.718;-2.460;2023-08-01T00:30:07;58.10;87.00
74420;DHT22;62855;50.718;-2.460;2023-08-01T00:33:06;58.28;87.00
74420;DHT22;62855;50.718;-2.460;2023-08-01T00:36:06;58.28;87.00
74420;DHT22;62855;50.718;-2.460;2023-08-01T00:39:06;58.28;87.00
74420;DHT22;62855;50.718;-2.460;2023-08-01T00:42:06;58.28;87.00
74420;DHT22;62855;50.718;-2.460;2023-08-01T00:45:07;58.10;87.00
74420;DHT22;62855;50.718;-2.460;2023-08-01T00:48:06;58.10;87.00
74420;DHT22;62855;50.718;-2.460;2023-08-01T00:51:07;58.10;86.00
74420;DHT22;62855;50.718;-2.460;2023-08-01T00:54:06;57.92;86.00
74420;DHT22;62855;50.718;-2.460;2023-08-01T00:57:06;57.92;86.00
74420;DHT22;62855;50.718;-2.460;2023-08-01T01:00:07;57.92;86.00
74420;DHT22;62855;50.718;-2.460;2023-08-01T01:03:06;57.74;86.00
74420;DHT22;62855;50.718;-2.460;2023-08-01T01:06:11;57.92;87.00
74420;DHT22;62855;50.718;-2.460;2023-08-01T01:09:14;57.92;87.00
74420;DHT22;62855;50.718;-2.460;2023-08-01T01:12:06;57.92;87.00
74420;DHT22;62855;50.718;-2.460;2023-08-01T01:15:07;57.92;87.00
74420;DHT22;62855;50.718;-2.460;2023-08-01T01:18:06;58.10;88.00
74420;DHT22;62855;50.718;-2.460;2023-08-01T01:21:06;58.28;88.00
74420;DHT22;62855;50.718;-2.460;2023-08-01T01:24:08;58.28;88.00
74420;DHT22;62855;50.718;-2.460;2023-08-01T01:27:07;58.28;88.00
74420;DHT22;62855;50.718;-2.460;2023-08-01T01:30:07;58.28;88.00
74420;DHT22;62855;50.718;-2.460;2023-08-01T01:33:07;58.46;88.00
74420;DHT22;62855;50.718;-2.460;2023-08-01T01:36:05;58.46;88.00
74420;DHT22;62855;50.718;-2.460;2023-08-01T01:39:06;58.46;88.00
74420;DHT22;62855;50.718;-2.460;2023-08-01T01:42:06;58.46;88.00
74420;DHT22;62855;50.718;-2.460;2023-08-01T01:45:07;58.46;88.00
74420;DHT22;62855;50.718;-2.460;2023-08-01T01:48:06;58.46;88.00
74420;DHT22;62855;50.718;-2.460;2023-08-01T01:51:06;58.46;88.00
74420;DHT22;62855;50.718;-2.460;2023-08-01T01:54:06;58.46;88.00
74420;DHT22;62855;50.718;-2.460;2023-08-01T01:57:06;58.46;87.00
74420;DHT22;62855;50.718;-2.460;2023-08-01T02:00:07;58.46;87.00
74420;DHT22;62855;50.718;-2.460;2023-08-01T02:03:06;58.28;87.00
74420;DHT22;62855;50.718;-2.460;2023-08-01T02:06:06;58.28;87.00
74420;DHT22;62855;50.718;-2.460;2023-08-01T02:09:06;58.28;87.00
74420;DHT22;62855;50.718;-2.460;2023-08-01T02:12:07;58.28;87.00
74420;DHT22;62855;50.718;-2.460;2023-08-01T02:15:07;58.28;87.00
74420;DHT22;62855;50.718;-2.460;2023-08-01T02:18:06;58.28;86.00
74420;DHT22;62855;50.718;-2.460;2023-08-01T02:21:06;58.28;86.00
74420;DHT22;62855;50.718;-2.460;2023-08-01T02:24:06;58.28;86.00
74420;DHT22;62855;50.718;-2.460;2023-08-01T02:27:06;58.28;86.00
74420;DHT22;62855;50.718;-2.460;2023-08-01T02:30:07;58.28;86.00
74420;DHT22;62855;50.718;-2.460;2023-08-01T02:33:06;58.28;86.00
74420;DHT22;62855;50.718;-2.460;2023-08-01T02:36:06;58.28;86.00
74420;DHT22;62855;50.718;-2.460;2023-08-01T02:39:06;58.28;86.00
74420;DHT22;62855;50.718;-2.460;2023-08-01T02:42:06;58.10;86.00
74420;DHT22;62855;50.718;-2.460;2023-08-01T02:45:07;58.10;86.00
74420;DHT22;62855;50.718;-2.460;2023-08-01T02:48:06;58.10;86.00
74420;DHT22;62855;50.718;-2.460;2023-08-01T02:51:06;58.28;86.00
74420;DHT22;62855;50.718;-2.460;2023-08-01T02:54:06;58.28;86.00
74420;DHT22;62855;50.718;-2.460;2023-08-01T02:57:06;58.28;86.00
74420;DHT22;62855;50.718;-2.460;2023-08-01T03:00:07;58.28;86.00
74420;DHT22;62855;50.718;-2.460;2023-08-01T03:03:06;58.28;87.00
74420;DHT22;62855;50.718;-2.460;2023-08-01T03:06:06;58.28;87.00
74420;DHT22;62855;50.718;-2.460;2023-08-01T03:09:06;58.28;87.00
74420;DHT22;62855;50.718;-2.460;2023-08-01T03:12:06;58.28;87.00
74420;DHT22;62855;50.718;-2.460;2023-08-01T03:15:07;58.28;87.00
74420;DHT22;62855;50.718;-2.460;2023-08-01T03:18:06;58.28;87.00
74420;DHT22;62855;50.718;-2.460;2023-08-01T03:21:06;58.28;87.00
74420;DHT22;62855;50.718;-2.460;2023-08-01T03:24:06;58.46;88.00
74420;DHT22;62855;50.718;-2.460;2023-08-01T03:27:06;58.46;88.00
74420;DHT22;62855;50.718;-2.460;2023-08-01T03:30:07;58.46;88.00
74420;DHT22;62855;50.718;-2.460;2023-08-01T03:33:06;58.28;88.00
74420;DHT22;62855;50.718;-2.460;2023-08-01T03:36:06;58.28;88.00
74420;DHT22;62855;50.718;-2.460;2023-08-01T03:39:05;58.28;88.00
74420;DHT22;62855;50.718;-2.460;2023-08-01T03:42:06;58.28;88.00
74420;DHT22;62855;50.718;-2.460;2023-08-01T03:45:06;58.28;88.00
74420;DHT22;62855;50.718;-2.460;2023-08-01T03:48:06;58.28;88.00
74420;DHT22;62855;50.718;-2.460;2023-08-01T03:51:06;58.10;88.00
74420;DHT22;62855;50.718;-2.460;2023-08-01T03:54:06;58.10;89.00
74420;DHT22;62855;50.718;-2.460;2023-08-01T03:57:06;58.10;89.00
74420;DHT22;62855;50.718;-2.460;2023-08-01T04:00:07;58.10;89.00
74420;DHT22;62855;50.718;-2.460;2023-08-01T04:03:06;58.10;89.00
74420;DHT22;62855;50.718;-2.460;2023-08-01T04:06:06;58.10;89.00
74420;DHT22;62855;50.718;-2.460;2023-08-01T04:09:05;58.10;89.00
74420;DHT22;62855;50.718;-2.460;2023-08-01T04:12:07;58.10;89.00
74420;DHT22;62855;50.718;-2.460;2023-08-01T04:15:06;58.10;89.00
74420;DHT22;62855;50.718;-2.460;2023-08-01T04:18:06;58.10;90.00
74420;DHT22;62855;50.718;-2.460;2023-08-01T04:21:08;58.10;90.00
74420;DHT22;62855;50.718;-2.460;2023-08-01T04:24:06;58.10;90.00
74420;DHT22;62855;50.718;-2.460;2023-08-01T04:27:06;58.10;90.00
74420;DHT22;62855;50.718;-2.460;2023-08-01T04:30:07;58.10;90.00
74420;DHT22;62855;50.718;-2.460;2023-08-01T04:33:06;58.10;90.00
74420;DHT22;62855;50.718;-2.460;2023-08-01T04:36:06;58.10;90.00
74420;DHT22;62855;50.718;-2.460;2023-08-01T04:39:06;58.10;90.00
74420;DHT22;62855;50.718;-2.460;2023-08-01T04:42:06;58.10;90.00
74420;DHT22;62855;50.718;-2.460;2023-08-01T04:45:07;58.10;90.00
74420;DHT22;62855;50.718;-2.460;2023-08-01T04:48:06;58.10;90.00
74420;DHT22;62855;50.718;-2.460;2023-08-01T04:51:06;58.28;90.00
74420;DHT22;62855;50.718;-2.460;2023-08-01T04:54:06;58.28;90.00
74420;DHT22;62855;50.718;-2.460;2023-08-01T04:57:06;58.28;86.00
74420;DHT22;62855;50.718;-2.460;2023-08-01T05:00:07;58.28;86.00
74420;DHT22;62855;50.718;-2.460;2023-08-01T05:03:06;58.28;86.00
74420;DHT22;62855;50.718;-2.460;2023-08-01T05:06:06;58.46;86.00
74420;DHT22;62855;50.718;-2.460;2023-08-01T05:09:06;58.46;85.00
74420;DHT22;62855;50.718;-2.460;2023-08-01T05:12:07;58.46;85.00
74420;DHT22;62855;50.718;-2.460;2023-08-01T05:15:06;58.46;85.00
74420;DHT22;62855;50.718;-2.460;2023-08-01T05:18:06;58.64;84.00
74420;DHT22;62855;50.718;-2.460;2023-08-01T05:21:06;58.64;84.00
74420;DHT22;62855;50.718;-2.460;2023-08-01T05:24:06;58.64;84.00
74420;DHT22;62855;50.718;-2.460;2023-08-01T05:27:06;58.64;84.00
74420;DHT22;62855;50.718;-2.460;2023-08-01T05:30:07;58.64;84.00
74420;DHT22;62855;50.718;-2.460;2023-08-01T05:33:06;58.64;84.00
74420;DHT22;62855;50.718;-2.460;2023-08-01T05:36:06;58.64;83.00
74420;DHT22;62855;50.718;-2.460;2023-08-01T05:39:06;58.82;83.00
74420;DHT22;62855;50.718;-2.460;2023-08-01T05:42:06;58.82;83.00
74420;DHT22;62855;50.718;-2.460;2023-08-01T05:45:07;58.82;83.00
74420;DHT22;62855;50.718;-2.460;2023-08-01T05:48:06;58.82;83.00
74420;DHT22;62855;50.718;-2.460;2023-08-01T05:51:06;58.82;83.00
74420;DHT22;62855;50.718;-2.460;2023-08-01T05:54:06;58.82;83.00
74420;DHT22;62855;50.718;-2.460;2023-08-01T05:57:07;59.00;83.00
74420;DHT22;62855;50.718;-2.460;2023-08-01T06:00:07;59.00;83.00
74420;DHT22;62855;50.718;-2.460;2023-08-01T06:03:06;59.00;83.00
74420;DHT22;62855;50.718;-2.460;2023-08-01T06:06:05;59.00;82.00
74420;DHT22;62855;50.718;-2.460;2023-08-01T06:09:06;59.18;82.00
74420;DHT22;62855;50.718;-2.460;2023-08-01T06:12:06;59.18;82.00
74420;DHT22;62855;50.718;-2.460;2023-08-01T06:15:07;59.18;82.00
74420;DHT22;62855;50.718;-2.460;2023-08-01T06:18:06;59.18;82.00
74420;DHT22;62855;50.718;-2.460;2023-08-01T06:21:06;59.18;82.00
74420;DHT22;62855;50.718;-2.460;2023-08-01T06:24:06;59.36;82.00
74420;DHT22;62855;50.718;-2.460;2023-08-01T06:27:06;59.54;82.00
74420;DHT22;62855;50.718;-2.460;2023-08-01T06:30:07;59.72;82.00
74420;DHT22;62855;50.718;-2.460;2023-08-01T06:33:06;59.90;82.00
74420;DHT22;62855;50.718;-2.460;2023-08-01T06:36:06;60.08;82.00
74420;DHT22;62855;50.718;-2.460;2023-08-01T06:39:06;60.08;82.00
74420;DHT22;62855;50.718;-2.460;2023-08-01T06:42:06;60.26;81.00
74420;DHT22;62855;50.718;-2.460;2023-08-01T06:45:06;60.26;81.00
74420;DHT22;62855;50.718;-2.460;2023-08-01T06:48:06;60.26;81.00
74420;DHT22;62855;50.718;-2.460;2023-08-01T06:51:06;60.26;81.00
74420;DHT22;62855;50.718;-2.460;2023-08-01T06:54:07;60.44;81.00
74420;DHT22;62855;50.718;-2.460;2023-08-01T06:57:06;60.44;81.00
74420;DHT22;62855;50.718;-2.460;2023-08-01T07:00:07;60.44;81.00
74420;DHT22;62855;50.718;-2.460;2023-08-01T07:03:06;60.44;81.00
74420;DHT22;62855;50.718;-2.460;2023-08-01T07:06:06;60.44;81.00
74420;DHT22;62855;50.718;-2.460;2023-08-01T07:09:06;60.26;82.00
74420;DHT22;62855;50.718;-2.460;2023-08-01T07:12:06;60.08;82.00
74420;DHT22;62855;50.718;-2.460;2023-08-01T07:15:08;59.90;82.00
74420;DHT22;62855;50.718;-2.460;2023-08-01T07:18:06;59.54;82.00
74420;DHT22;62855;50.718;-2.460;2023-08-01T07:21:06;59.36;82.00
74420;DHT22;62855;50.718;-2.460;2023-08-01T07:24:06;59.00;83.00
74420;DHT22;62855;50.718;-2.460;2023-08-01T07:27:06;58.82;83.00
74420;DHT22;62855;50.718;-2.460;2023-08-01T07:30:07;58.82;83.00
74420;DHT22;62855;50.718;-2.460;2023-08-01T07:33:06;59.00;82.00
74420;DHT22;62855;50.718;-2.460;2023-08-01T07:36:06;59.00;82.00
74420;DHT22;62855;50.718;-2.460;2023-08-01T07:39:06;59.18;82.00
74420;DHT22;62855;50.718;-2.460;2023-08-01T07:42:06;59.18;82.00
74420;DHT22;62855;50.718;-2.460;2023-08-01T07:45:07;59.18;83.00
74420;DHT22;62855;50.718;-2.460;2023-08-01T07:48:06;59.36;84.00
74420;DHT22;62855;50.718;-2.460;2023-08-01T07:51:06;59.54;84.00
74420;DHT22;62855;50.718;-2.460;2023-08-01T07:54:06;59.90;84.00
74420;DHT22;62855;50.718;-2.460;2023-08-01T07:57:06;60.26;85.00
74420;DHT22;62855;50.718;-2.460;2023-08-01T08:00:07;60.44;85.00
74420;DHT22;62855;50.718;-2.460;2023-08-01T08:03:06;61.16;84.00
74420;DHT22;62855;50.718;-2.460;2023-08-01T08:06:06;61.52;84.00
74420;DHT22;62855;50.718;-2.460;2023-08-01T08:09:06;61.70;82.00
74420;DHT22;62855;50.718;-2.460;2023-08-01T08:12:06;61.88;81.00
74420;DHT22;62855;50.718;-2.460;2023-08-01T08:15:07;61.88;80.00
74420;DHT22;62855;50.718;-2.460;2023-08-01T08:18:06;62.06;79.00
74420;DHT22;62855;50.718;-2.460;2023-08-01T08:21:06;62.24;79.00
74420;DHT22;62855;50.718;-2.460;2023-08-01T08:24:06;62.60;75.00
74420;DHT22;62855;50.718;-2.460;2023-08-01T08:27:06;63.14;75.00
74420;DHT22;62855;50.718;-2.460;2023-08-01T08:30:07;63.50;74.00
74420;DHT22;62855;50.718;-2.460;2023-08-01T08:33:06;63.86;73.00
74420;DHT22;62855;50.718;-2.460;2023-08-01T08:36:06;64.22;72.00
74420;DHT22;62855;50.718;-2.460;2023-08-01T08:39:06;64.40;72.00
74420;DHT22;62855;50.718;-2.460;2023-08-01T08:42:06;64.40;71.00
74420;DHT22;62855;50.718;-2.460;2023-08-01T08:45:06;65.12;70.00
74420;DHT22;62855;50.718;-2.460;2023-08-01T08:48:09;65.84;70.00
74420;DHT22;62855;50.718;-2.460;2023-08-01T08:51:06;65.48;71.00
74420;DHT22;62855;50.718;-2.460;2023-08-01T08:54:06;65.48;71.00
74420;DHT22;62855;50.718;-2.460;2023-08-01T08:57:06;65.30;72.00
74420;DHT22;62855;50.718;-2.460;2023-08-01T09:00:07;64.94;72.00
74420;DHT22;62855;50.718;-2.460;2023-08-01T09:03:06;64.76;72.00
74420;DHT22;62855;50.718;-2.460;2023-08-01T09:06:09;64.58;72.00
74420;DHT22;62855;50.718;-2.460;2023-08-01T09:09:10;64.94;73.00
74420;DHT22;62855;50.718;-2.460;2023-08-01T09:12:08;65.48;73.00
74420;DHT22;62855;50.718;-2.460;2023-08-01T09:15:07;66.20;74.00
74420;DHT22;62855;50.718;-2.460;2023-08-01T09:18:07;66.74;73.00
74420;DHT22;62855;50.718;-2.460;2023-08-01T09:21:06;66.92;71.00
74420;DHT22;62855;50.718;-2.460;2023-08-01T09:24:10;66.92;70.00
74420;DHT22;62855;50.718;-2.460;2023-08-01T09:27:06;66.74;70.00
74420;DHT22;62855;50.718;-2.460;2023-08-01T09:30:08;66.74;70.00
74420;DHT22;62855;50.718;-2.460;2023-08-01T09:33:06;66.56;70.00
74420;DHT22;62855;50.718;-2.460;2023-08-01T09:36:06;66.38;70.00
74420;DHT22;62855;50.718;-2.460;2023-08-01T09:39:06;66.56;70.00
74420;DHT22;62855;50.718;-2.460;2023-08-01T09:42:06;66.38;70.00
74420;DHT22;62855;50.718;-2.460;2023-08-01T09:45:12;66.20;71.00
74420;DHT22;62855;50.718;-2.460;2023-08-01T09:48:06;66.20;71.00
74420;DHT22;62855;50.718;-2.460;2023-08-01T09:51:08;66.20;71.00
74420;DHT22;62855;50.718;-2.460;2023-08-01T09:54:06;66.38;71.00
74420;DHT22;62855;50.718;-2.460;2023-08-01T09:57:06;66.56;71.00
74420;DHT22;62855;50.718;-2.460;2023-08-01T10:00:07;66.74;71.00
74420;DHT22;62855;50.718;-2.460;2023-08-01T10:03:06;67.10;71.00
74420;DHT22;62855;50.718;-2.460;2023-08-01T10:06:07;67.28;71.00
74420;DHT22;62855;50.718;-2.460;2023-08-01T10:09:10;67.46;70.00
74420;DHT22;62855;50.718;-2.460;2023-08-01T10:12:08;67.46;70.00
74420;DHT22;62855;50.718;-2.460;2023-08-01T10:15:07;67.46;70.00
74420;DHT22;62855;50.718;-2.460;2023-08-01T10:18:06;67.46;70.00
74420;DHT22;62855;50.718;-2.460;2023-08-01T10:21:07;67.64;70.00
74420;DHT22;62855;50.718;-2.460;2023-08-01T10:24:06;67.64;70.00
74420;DHT22;62855;50.718;-2.460;2023-08-01T10:27:12;67.46;70.00
74420;DHT22;62855;50.718;-2.460;2023-08-01T10:30:06;67.28;70.00
74420;DHT22;62855;50.718;-2.460;2023-08-01T10:33:06;67.28;70.00
74420;DHT22;62855;50.718;-2.460;2023-08-01T10:36:12;67.28;70.00
74420;DHT22;62855;50.718;-2.460;2023-08-01T10:39:06;67.64;71.00
74420;DHT22;62855;50.718;-2.460;2023-08-01T10:42:06;67.82;71.00
74420;DHT22;62855;50.718;-2.460;2023-08-01T10:45:07;67.82;70.00
74420;DHT22;62855;50.718;-2.460;2023-08-01T10:48:08;67.64;70.00
74420;DHT22;62855;50.718;-2.460;2023-08-01T10:51:06;67.82;70.00
74420;DHT22;62855;50.718;-2.460;2023-08-01T10:54:06;67.82;70.00
74420;DHT22;62855;50.718;-2.460;2023-08-01T10:57:06;67.46;70.00
74420;DHT22;62855;50.718;-2.460;2023-08-01T11:00:07;67.28;70.00
74420;DHT22;62855;50.718;-2.460;2023-08-01T11:03:06;67.28;71.00
74420;DHT22;62855;50.718;-2.460;2023-08-01T11:06:06;67.46;71.00
74420;DHT22;62855;50.718;-2.460;2023-08-01T11:09:16;67.64;71.00
74420;DHT22;62855;50.718;-2.460;2023-08-01T11:12:07;67.82;71.00
74420;DHT22;62855;50.718;-2.460;2023-08-01T11:15:08;68.18;71.00
74420;DHT22;62855;50.718;-2.460;2023-08-01T11:18:09;68.72;71.00
74420;DHT22;62855;50.718;-2.460;2023-08-01T11:21:05;68.90;70.00
74420;DHT22;62855;50.718;-2.460;2023-08-01T11:24:07;68.72;69.00
74420;DHT22;62855;50.718;-2.460;2023-08-01T11:27:06;68.54;69.00
74420;DHT22;62855;50.718;-2.460;2023-08-01T11:30:07;68.36;69.00
74420;DHT22;62855;50.718;-2.460;2023-08-01T11:33:14;68.36;70.00
74420;DHT22;62855;50.718;-2.460;2023-08-01T11:36:06;68.36;70.00
74420;DHT22;62855;50.718;-2.460;2023-08-01T11:39:06;68.36;70.00
74420;DHT22;62855;50.718;-2.460;2023-08-01T11:42:07;68.36;70.00
74420;DHT22;62855;50.718;-2.460;2023-08-01T11:45:08;68.72;70.00
74420;DHT22;62855;50.718;-2.460;2023-08-01T11:48:06;69.08;69.00
74420;DHT22;62855;50.718;-2.460;2023-08-01T11:51:06;69.08;69.00
74420;DHT22;62855;50.718;-2.460;2023-08-01T11:54:06;69.26;70.00
74420;DHT22;62855;50.718;-2.460;2023-08-01T11:57:08;69.26;69.00
74420;DHT22;62855;50.718;-2.460;2023-08-01T12:00:07;69.44;69.00
74420;DHT22;62855;50.718;-2.460;2023-08-01T12:03:07;69.62;69.00
74420;DHT22;62855;50.718;-2.460;2023-08-01T12:06:06;69.80;70.00
74420;DHT22;62855;50.718;-2.460;2023-08-01T12:09:08;69.98;70.00
74420;DHT22;62855;50.718;-2.460;2023-08-01T12:12:08;70.16;70.00
74420;DHT22;62855;50.718;-2.460;2023-08-01T12:15:07;70.16;69.00
74420;DHT22;62855;50.718;-2.460;2023-08-01T12:18:05;70.34;69.00
74420;DHT22;62855;50.718;-2.460;2023-08-01T12:21:06;70.34;68.00
74420;DHT22;62855;50.718;-2.460;2023-08-01T12:24:06;70.16;68.00
74420;DHT22;62855;50.718;-2.460;2023-08-01T12:27:06;69.62;67.00
74420;DHT22;62855;50.718;-2.460;2023-08-01T12:30:07;69.44;68.00
74420;DHT22;62855;50.718;-2.460;2023-08-01T12:33:05;69.26;69.00
74420;DHT22;62855;50.718;-2.460;2023-08-01T12:36:06;69.08;69.00
74420;DHT22;62855;50.718;-2.460;2023-08-01T12:39:06;68.54;69.00
74420;DHT22;62855;50.718;-2.460;2023-08-01T12:42:06;68.18;70.00
74420;DHT22;62855;50.718;-2.460;2023-08-01T12:45:07;67.64;70.00
74420;DHT22;62855;50.718;-2.460;2023-08-01T12:48:05;67.10;72.00
74420;DHT22;62855;50.718;-2.460;2023-08-01T12:51:08;66.92;73.00
74420;DHT22;62855;50.718;-2.460;2023-08-01T12:54:06;66.56;74.00
74420;DHT22;62855;50.718;-2.460;2023-08-01T12:57:06;66.02;75.00
74420;DHT22;62855;50.718;-2.460;2023-08-01T13:00:07;65.48;77.00
74420;DHT22;62855;50.718;-2.460;2023-08-01T13:03:06;65.30;79.00
74420;DHT22;62855;50.718;-2.460;2023-08-01T13:06:06;65.12;80.00
74420;DHT22;62855;50.718;-2.460;2023-08-01T13:09:06;65.30;81.00
74420;DHT22;62855;50.718;-2.460;2023-08-01T13:12:07;65.48;81.00
74420;DHT22;62855;50.718;-2.460;2023-08-01T13:15:07;65.84;81.00
74420;DHT22;62855;50.718;-2.460;2023-08-01T13:18:06;66.38;81.00
74420;DHT22;62855;50.718;-2.460;2023-08-01T13:21:06;66.56;80.00
74420;DHT22;62855;50.718;-2.460;2023-08-01T13:24:06;66.92;78.00
74420;DHT22;62855;50.718;-2.460;2023-08-01T13:27:06;67.28;77.00
74420;DHT22;62855;50.718;-2.460;2023-08-01T13:30:07;67.82;74.00
74420;DHT22;62855;50.718;-2.460;2023-08-01T13:33:06;68.18;72.00
74420;DHT22;62855;50.718;-2.460;2023-08-01T13:36:06;68.36;71.00
74420;DHT22;62855;50.718;-2.460;2023-08-01T13:39:06;68.36;70.00
74420;DHT22;62855;50.718;-2.460;2023-08-01T13:42:06;68.36;69.00
74420;DHT22;62855;50.718;-2.460;2023-08-01T13:45:06;68.54;68.00
74420;DHT22;62855;50.718;-2.460;2023-08-01T13:48:06;68.72;69.00
74420;DHT22;62855;50.718;-2.460;2023-08-01T13:51:06;68.90;68.00
74420;DHT22;62855;50.718;-2.460;2023-08-01T13:54:06;69.08;69.00
74420;DHT22;62855;50.718;-2.460;2023-08-01T13:57:06;69.26;69.00
74420;DHT22;62855;50.718;-2.460;2023-08-01T14:00:07;69.08;68.00
74420;DHT22;62855;50.718;-2.460;2023-08-01T14:03:06;68.90;67.00
74420;DHT22;62855;50.718;-2.460;2023-08-01T14:06:06;68.72;69.00
74420;DHT22;62855;50.718;-2.460;2023-08-01T14:09:06;68.72;69.00
74420;DHT22;62855;50.718;-2.460;2023-08-01T14:12:07;68.72;69.00
74420;DHT22;62855;50.718;-2.460;2023-08-01T14:15:07;68.72;70.00
74420;DHT22;62855;50.718;-2.460;2023-08-01T14:18:06;68.90;70.00
74420;DHT22;62855;50.718;-2.460;2023-08-01T14:21:06;69.08;70.00
74420;DHT22;62855;50.718;-2.460;2023-08-01T14:24:06;69.08;70.00
74420;DHT22;62855;50.718;-2.460;2023-08-01T14:27:06;69.08;70.00
74420;DHT22;62855;50.718;-2.460;2023-08-01T14:30:07;69.08;70.00
74420;DHT22;62855;50.718;-2.460;2023-08-01T14:33:07;69.08;70.00
74420;DHT22;62855;50.718;-2.460;2023-08-01T14:36:08;69.08;70.00
74420;DHT22;62855;50.718;-2.460;2023-08-01T14:39:06;69.08;70.00
74420;DHT22;62855;50.718;-2.460;2023-08-01T14:42:06;69.08;70.00
74420;DHT22;62855;50.718;-2.460;2023-08-01T14:45:07;69.08;69.00
74420;DHT22;62855;50.718;-2.460;2023-08-01T14:48:06;69.08;69.00
74420;DHT22;62855;50.718;-2.460;2023-08-01T14:51:06;69.26;70.00
74420;DHT22;62855;50.718;-2.460;2023-08-01T14:54:06;69.62;70.00
74420;DHT22;62855;50.718;-2.460;2023-08-01T14:57:05;69.80;70.00
74420;DHT22;62855;50.718;-2.460;2023-08-01T15:00:07;69.98;69.00
74420;DHT22;62855;50.718;-2.460;2023-08-01T15:03:06;70.16;69.00
74420;DHT22;62855;50.718;-2.460;2023-08-01T15:06:07;70.34;68.00
74420;DHT22;62855;50.718;-2.460;2023-08-01T15:09:06;70.16;67.00
74420;DHT22;62855;50.718;-2.460;2023-08-01T15:12:06;69.98;67.00
74420;DHT22;62855;50.718;-2.460;2023-08-01T15:15:07;69.80;68.00
74420;DHT22;62855;50.718;-2.460;2023-08-01T15:18:06;69.62;68.00
74420;DHT22;62855;50.718;-2.460;2023-08-01T15:21:06;69.62;68.00
74420;DHT22;62855;50.718;-2.460;2023-08-01T15:24:06;69.44;69.00
74420;DHT22;62855;50.718;-2.460;2023-08-01T15:27:06;69.44;69.00
74420;DHT22;62855;50.718;-2.460;2023-08-01T15:30:07;69.44;67.00
74420;DHT22;62855;50.718;-2.460;2023-08-01T15:33:05;69.44;66.00
74420;DHT22;62855;50.718;-2.460;2023-08-01T15:36:07;69.62;66.00
74420;DHT22;62855;50.718;-2.460;2023-08-01T15:39:06;69.62;66.00
74420;DHT22;62855;50.718;-2.460;2023-08-01T15:42:06;69.44;66.00
74420;DHT22;62855;50.718;-2.460;2023-08-01T15:45:07;69.62;67.00
74420;DHT22;62855;50.718;-2.460;2023-08-01T15:48:06;69.80;66.00
74420;DHT22;62855;50.718;-2.460;2023-08-01T15:51:07;69.80;65.00
74420;DHT22;62855;50.718;-2.460;2023-08-01T15:54:06;69.62;64.00
74420;DHT22;62855;50.718;-2.460;2023-08-01T15:57:06;69.62;63.00
74420;DHT22;62855;50.718;-2.460;2023-08-01T16:00:07;69.26;62.00
74420;DHT22;62855;50.718;-2.460;2023-08-01T16:03:06;68.72;61.00
74420;DHT22;62855;50.718;-2.460;2023-08-01T16:06:06;68.54;61.00
74420;DHT22;62855;50.718;-2.460;2023-08-01T16:09:06;68.18;61.00
74420;DHT22;62855;50.718;-2.460;2023-08-01T16:12:07;67.82;61.00
74420;DHT22;62855;50.718;-2.460;2023-08-01T16:15:07;67.46;63.00
74420;DHT22;62855;50.718;-2.460;2023-08-01T16:18:07;67.10;64.00
74420;DHT22;62855;50.718;-2.460;2023-08-01T16:21:06;66.74;65.00
74420;DHT22;62855;50.718;-2.460;2023-08-01T16:24:06;66.38;66.00
74420;DHT22;62855;50.718;-2.460;2023-08-01T16:27:06;66.20;67.00
74420;DHT22;62855;50.718;-2.460;2023-08-01T16:30:08;66.02;69.00
74420;DHT22;62855;50.718;-2.460;2023-08-01T16:33:06;65.84;69.00
74420;DHT22;62855;50.718;-2.460;2023-08-01T16:36:06;65.66;70.00
74420;DHT22;62855;50.718;-2.460;2023-08-01T16:39:06;65.48;70.00
74420;DHT22;62855;50.718;-2.460;2023-08-01T16:42:06;65.48;71.00
74420;DHT22;62855;50.718;-2.460;2023-08-01T16:45:07;65.30;71.00
74420;DHT22;62855;50.718;-2.460;2023-08-01T16:48:06;65.30;71.00
74420;DHT22;62855;50.718;-2.460;2023-08-01T16:51:06;65.12;71.00
74420;DHT22;62855;50.718;-2.460;2023-08-01T16:54:06;65.12;71.00
74420;DHT22;62855;50.718;-2.460;2023-08-01T16:57:07;64.94;71.00
74420;DHT22;62855;50.718;-2.460;2023-08-01T17:00:07;64.76;71.00
74420;DHT22;62855;50.718;-2.460;2023-08-01T17:03:06;64.58;71.00
74420;DHT22;62855;50.718;-2.460;2023-08-01T17:06:08;64.40;72.00
74420;DHT22;62855;50.718;-2.460;2023-08-01T17:09:06;64.40;72.00
74420;DHT22;62855;50.718;-2.460;2023-08-01T17:12:07;64.22;72.00
74420;DHT22;62855;50.718;-2.460;2023-08-01T17:15:06;64.04;72.00
74420;DHT22;62855;50.718;-2.460;2023-08-01T17:18:05;64.04;72.00
74420;DHT22;62855;50.718;-2.460;2023-08-01T17:21:06;63.86;72.00
74420;DHT22;62855;50.718;-2.460;2023-08-01T17:24:06;63.86;73.00
74420;DHT22;62855;50.718;-2.460;2023-08-01T17:27:06;63.68;73.00
74420;DHT22;62855;50.718;-2.460;2023-08-01T17:30:07;63.50;73.00
74420;DHT22;62855;50.718;-2.460;2023-08-01T17:33:06;63.50;73.00
74420;DHT22;62855;50.718;-2.460;2023-08-01T17:36:06;63.32;73.00
74420;DHT22;62855;50.718;-2.460;2023-08-01T17:39:06;63.14;74.00
74420;DHT22;62855;50.718;-2.460;2023-08-01T17:42:06;63.14;75.00
74420;DHT22;62855;50.718;-2.460;2023-08-01T17:45:07;62.96;75.00
74420;DHT22;62855;50.718;-2.460;2023-08-01T17:48:06;62.78;76.00
74420;DHT22;62855;50.718;-2.460;2023-08-01T17:51:06;62.60;76.00
74420;DHT22;62855;50.718;-2.460;2023-08-01T17:54:06;62.42;76.00
74420;DHT22;62855;50.718;-2.460;2023-08-01T17:57:07;62.42;76.00
74420;DHT22;62855;50.718;-2.460;2023-08-01T18:00:07;62.24;80.00
74420;DHT22;62855;50.718;-2.460;2023-08-01T18:03:06;62.24;80.00
74420;DHT22;62855;50.718;-2.460;2023-08-01T18:06:08;62.06;80.00
74420;DHT22;62855;50.718;-2.460;2023-08-01T18:09:05;61.88;79.00
74420;DHT22;62855;50.718;-2.460;2023-08-01T18:12:07;61.88;79.00
74420;DHT22;62855;50.718;-2.460;2023-08-01T18:15:07;61.88;79.00
74420;DHT22;62855;50.718;-2.460;2023-08-01T18:18:06;61.88;79.00
74420;DHT22;62855;50.718;-2.460;2023-08-01T18:21:06;61.88;80.00
74420;DHT22;62855;50.718;-2.460;2023-08-01T18:24:06;61.88;80.00
74420;DHT22;62855;50.718;-2.460;2023-08-01T18:27:06;61.88;80.00
74420;DHT22;62855;50.718;-2.460;2023-08-01T18:30:07;61.70;80.00
74420;DHT22;62855;50.718;-2.460;2023-08-01T18:33:06;61.70;80.00
74420;DHT22;62855;50.718;-2.460;2023-08-01T18:36:11;61.70;80.00